Tropical Cyclones
[Index]
Main Index Home Page Stock Weather Photos Extreme Storms Discussion Storm News and Storm Chasing Reports Tropical Cyclones / Hurricanes / Typhoons Weather Data and Links Wild Fires / Bushfires Weather Observation Techniques Weather Picture Catalogue Tornado Pictures and Reports Stock Video Footage and DVDs for sale
Season 2006-2007 Tropical Cyclone KARA Track Map
Season 2006-2007 Summaries: [BoM-AU] [JTWC-AU] [JTWC-SIO] [JTWC-SPAC] [JTWC-SH]
<<- Previous TC | JTWC 2006-2007 Season | Next TC ->>

click for intensity scale information  Lat/long Grid: Show Hide

 Date Labels: Show Hide

Joint Typhoon Warning Centre Cyclone Data

Name: KARA

24 Mar 2007 06:00 UTC to 29 Mar 2007 06:00 UTC

    date/time    lat    long     hPa   cat  kts
2007-03-24 06   16.2   120.5    1002         25          
2007-03-24 12   16.3   119.3    1002         25          
2007-03-24 18   16.4   118.1    1000         30          
2007-03-25 00   16.5   117.3    1000         30          
2007-03-25 06   16.6   116.7     997         35          
2007-03-25 12   16.8   116.1     989    1    45          
2007-03-25 18   17.1   115.6     982    2    55          
2007-03-25 18   17.1   115.6     982    2    55          
2007-03-26 00   17.5   115.3     967    3    75          
2007-03-26 00   17.5   115.3     967    3    75          
2007-03-26 00   17.5   115.3     967    3    75          
2007-03-26 06   18.0   115.2     956    3    90          
2007-03-26 06   18.0   115.2     956    3    90          
2007-03-26 06   18.0   115.2     956    3    90          
2007-03-26 12   18.3   115.5     956    3    90          
2007-03-26 12   18.3   115.5     956    3    90          
2007-03-26 12   18.3   115.5     956    3    90          
2007-03-26 18   18.5   116.1     956    3    90          
2007-03-26 18   18.5   116.1     956    3    90          
2007-03-26 18   18.5   116.1     956    3    90          
2007-03-27 00   18.6   116.8     944    4   105          
2007-03-27 00   18.6   116.8     944    4   105          
2007-03-27 00   18.6   116.8     944    4   105          
2007-03-27 06   18.8   117.8     963    3    80          
2007-03-27 06   18.8   117.8     963    3    80          
2007-03-27 06   18.8   117.8     963    3    80          
2007-03-27 12   19.0   119.1     989    1    45          
2007-03-27 18   19.2   120.4     996         35          
2007-03-28 00   19.1   120.9     996         35          
2007-03-28 06   18.9   121.3    1000         30          
2007-03-28 12   18.5   121.6    1004         25          
2007-03-28 18   18.3   121.6    1004         20          
2007-03-29 00   18.1   121.5    1004         20          
2007-03-29 06   18.0   121.4    1006         15          
Winds are 1-min average.

Tropical cyclone tracks developed by Michael Bath using data from the Joint Typhoon Warning Centre Best Tracks and Google Maps.


[Australian Severe Weather index] [Copyright Notice] [Email Contacts] [Search This Site] [Privacy Policy]
Document: tropical_cyclone_kara.htm Updated: 28 June 2017